sensor_id;sensor_type;location;lat;lon;timestamp;P1;durP1;ratioP1;P2;durP2;ratioP2
11328;SDS011;5719;42.714;23.732;2022-11-20T00:01:05;14.43;;;8.13;;
11328;SDS011;5719;42.714;23.732;2022-11-20T00:03:33;15.32;;;8.75;;
11328;SDS011;5719;42.714;23.732;2022-11-20T00:06:00;14.05;;;7.40;;
11328;SDS011;5719;42.714;23.732;2022-11-20T00:08:27;9.15;;;6.55;;
11328;SDS011;5719;42.714;23.732;2022-11-20T00:10:54;9.80;;;6.57;;
11328;SDS011;5719;42.714;23.732;2022-11-20T00:13:21;15.30;;;7.18;;
11328;SDS011;5719;42.714;23.732;2022-11-20T00:15:50;13.50;;;7.55;;
11328;SDS011;5719;42.714;23.732;2022-11-20T00:18:23;10.63;;;6.63;;
11328;SDS011;5719;42.714;23.732;2022-11-20T00:20:50;15.63;;;5.95;;
11328;SDS011;5719;42.714;23.732;2022-11-20T00:23:17;9.98;;;6.38;;
11328;SDS011;5719;42.714;23.732;2022-11-20T00:25:44;13.55;;;5.90;;
11328;SDS011;5719;42.714;23.732;2022-11-20T00:28:11;17.67;;;8.40;;
11328;SDS011;5719;42.714;23.732;2022-11-20T00:30:38;14.02;;;7.53;;
11328;SDS011;5719;42.714;23.732;2022-11-20T00:33:06;11.63;;;7.20;;
11328;SDS011;5719;42.714;23.732;2022-11-20T00:35:33;13.70;;;7.53;;
11328;SDS011;5719;42.714;23.732;2022-11-20T00:38:00;11.73;;;6.80;;
11328;SDS011;5719;42.714;23.732;2022-11-20T00:40:27;11.55;;;6.63;;
11328;SDS011;5719;42.714;23.732;2022-11-20T00:42:54;9.88;;;6.75;;
11328;SDS011;5719;42.714;23.732;2022-11-20T00:45:21;11.60;;;6.85;;
11328;SDS011;5719;42.714;23.732;2022-11-20T00:47:47;12.48;;;6.75;;
11328;SDS011;5719;42.714;23.732;2022-11-20T00:50:16;11.60;;;7.32;;
11328;SDS011;5719;42.714;23.732;2022-11-20T00:52:43;10.70;;;6.78;;
11328;SDS011;5719;42.714;23.732;2022-11-20T00:55:09;11.43;;;7.00;;
11328;SDS011;5719;42.714;23.732;2022-11-20T00:57:36;13.10;;;7.07;;
11328;SDS011;5719;42.714;23.732;2022-11-20T01:00:04;13.90;;;7.05;;
11328;SDS011;5719;42.714;23.732;2022-11-20T01:02:31;9.13;;;6.50;;
11328;SDS011;5719;42.714;23.732;2022-11-20T01:04:58;9.02;;;6.35;;
11328;SDS011;5719;42.714;23.732;2022-11-20T01:07:27;11.25;;;7.10;;
11328;SDS011;5719;42.714;23.732;2022-11-20T01:09:53;13.23;;;6.57;;
11328;SDS011;5719;42.714;23.732;2022-11-20T01:12:20;9.27;;;6.18;;
11328;SDS011;5719;42.714;23.732;2022-11-20T01:14:47;10.82;;;6.65;;
11328;SDS011;5719;42.714;23.732;2022-11-20T01:17:14;14.27;;;6.40;;
11328;SDS011;5719;42.714;23.732;2022-11-20T01:19:41;11.85;;;6.15;;
11328;SDS011;5719;42.714;23.732;2022-11-20T01:22:08;10.23;;;6.28;;
11328;SDS011;5719;42.714;23.732;2022-11-20T01:24:36;10.13;;;7.10;;
11328;SDS011;5719;42.714;23.732;2022-11-20T01:27:03;8.65;;;6.60;;
11328;SDS011;5719;42.714;23.732;2022-11-20T01:29:29;13.70;;;7.18;;
11328;SDS011;5719;42.714;23.732;2022-11-20T01:31:56;12.32;;;6.93;;
11328;SDS011;5719;42.714;23.732;2022-11-20T01:34:23;15.77;;;7.85;;
11328;SDS011;5719;42.714;23.732;2022-11-20T01:36:50;14.40;;;7.40;;
11328;SDS011;5719;42.714;23.732;2022-11-20T01:39:19;13.00;;;7.28;;
11328;SDS011;5719;42.714;23.732;2022-11-20T01:41:49;13.38;;;6.75;;
11328;SDS011;5719;42.714;23.732;2022-11-20T01:44:47;12.80;;;6.88;;
11328;SDS011;5719;42.714;23.732;2022-11-20T01:47:23;8.80;;;6.75;;
11328;SDS011;5719;42.714;23.732;2022-11-20T01:49:56;14.40;;;6.30;;
11328;SDS011;5719;42.714;23.732;2022-11-20T01:52:30;17.30;;;6.95;;
11328;SDS011;5719;42.714;23.732;2022-11-20T01:55:01;12.90;;;6.70;;
11328;SDS011;5719;42.714;23.732;2022-11-20T01:57:34;9.10;;;6.68;;
11328;SDS011;5719;42.714;23.732;2022-11-20T02:00:05;10.70;;;6.10;;
11328;SDS011;5719;42.714;23.732;2022-11-20T02:02:34;8.73;;;6.13;;
11328;SDS011;5719;42.714;23.732;2022-11-20T02:05:03;22.27;;;6.85;;
11328;SDS011;5719;42.714;23.732;2022-11-20T02:07:38;11.95;;;6.25;;
11328;SDS011;5719;42.714;23.732;2022-11-20T02:10:05;8.75;;;6.32;;
11328;SDS011;5719;42.714;23.732;2022-11-20T02:12:32;10.35;;;5.97;;
11328;SDS011;5719;42.714;23.732;2022-11-20T02:15:18;7.20;;;5.60;;
11328;SDS011;5719;42.714;23.732;2022-11-20T02:17:45;15.40;;;7.78;;
11328;SDS011;5719;42.714;23.732;2022-11-20T02:20:12;19.77;;;9.45;;
11328;SDS011;5719;42.714;23.732;2022-11-20T02:22:41;18.20;;;8.63;;
11328;SDS011;5719;42.714;23.732;2022-11-20T02:25:18;22.77;;;8.23;;
11328;SDS011;5719;42.714;23.732;2022-11-20T02:27:46;22.23;;;9.30;;
11328;SDS011;5719;42.714;23.732;2022-11-20T02:30:13;24.15;;;8.88;;
11328;SDS011;5719;42.714;23.732;2022-11-20T02:32:40;16.15;;;8.13;;
11328;SDS011;5719;42.714;23.732;2022-11-20T02:35:08;16.98;;;8.05;;
11328;SDS011;5719;42.714;23.732;2022-11-20T02:37:36;14.43;;;7.18;;
11328;SDS011;5719;42.714;23.732;2022-11-20T02:40:06;17.17;;;7.68;;
11328;SDS011;5719;42.714;23.732;2022-11-20T02:42:35;17.30;;;7.88;;
11328;SDS011;5719;42.714;23.732;2022-11-20T02:45:03;15.88;;;6.70;;
11328;SDS011;5719;42.714;23.732;2022-11-20T02:47:31;12.93;;;6.53;;
11328;SDS011;5719;42.714;23.732;2022-11-20T02:49:58;19.48;;;7.88;;
11328;SDS011;5719;42.714;23.732;2022-11-20T02:52:25;13.00;;;7.53;;
11328;SDS011;5719;42.714;23.732;2022-11-20T02:54:52;18.85;;;8.95;;
11328;SDS011;5719;42.714;23.732;2022-11-20T02:57:19;17.08;;;8.30;;
11328;SDS011;5719;42.714;23.732;2022-11-20T02:59:47;17.88;;;7.80;;
11328;SDS011;5719;42.714;23.732;2022-11-20T03:02:14;15.45;;;9.15;;
11328;SDS011;5719;42.714;23.732;2022-11-20T03:04:41;17.73;;;9.48;;
11328;SDS011;5719;42.714;23.732;2022-11-20T03:07:08;17.10;;;8.48;;
11328;SDS011;5719;42.714;23.732;2022-11-20T03:09:35;15.88;;;8.82;;
11328;SDS011;5719;42.714;23.732;2022-11-20T03:12:02;17.08;;;8.38;;
11328;SDS011;5719;42.714;23.732;2022-11-20T03:14:29;22.73;;;8.10;;
11328;SDS011;5719;42.714;23.732;2022-11-20T03:16:58;15.90;;;7.68;;
11328;SDS011;5719;42.714;23.732;2022-11-20T03:19:24;12.75;;;7.13;;
11328;SDS011;5719;42.714;23.732;2022-11-20T03:21:51;13.75;;;7.60;;
11328;SDS011;5719;42.714;23.732;2022-11-20T03:24:18;12.93;;;6.60;;
11328;SDS011;5719;42.714;23.732;2022-11-20T03:26:45;10.82;;;6.45;;
11328;SDS011;5719;42.714;23.732;2022-11-20T03:29:12;13.90;;;6.65;;
11328;SDS011;5719;42.714;23.732;2022-11-20T03:31:39;15.68;;;8.20;;
11328;SDS011;5719;42.714;23.732;2022-11-20T03:34:08;12.18;;;7.00;;
11328;SDS011;5719;42.714;23.732;2022-11-20T03:36:37;15.38;;;8.18;;
11328;SDS011;5719;42.714;23.732;2022-11-20T03:39:04;12.63;;;6.88;;
11328;SDS011;5719;42.714;23.732;2022-11-20T03:41:31;12.93;;;7.43;;
11328;SDS011;5719;42.714;23.732;2022-11-20T03:44:03;13.40;;;6.63;;
11328;SDS011;5719;42.714;23.732;2022-11-20T03:46:31;13.80;;;6.45;;
11328;SDS011;5719;42.714;23.732;2022-11-20T03:48:59;11.13;;;6.97;;
11328;SDS011;5719;42.714;23.732;2022-11-20T03:51:28;17.25;;;8.75;;
11328;SDS011;5719;42.714;23.732;2022-11-20T03:53:57;22.85;;;10.40;;
11328;SDS011;5719;42.714;23.732;2022-11-20T03:56:26;14.57;;;7.88;;
11328;SDS011;5719;42.714;23.732;2022-11-20T03:58:53;20.42;;;8.65;;
11328;SDS011;5719;42.714;23.732;2022-11-20T04:01:21;16.27;;;8.75;;
11328;SDS011;5719;42.714;23.732;2022-11-20T04:03:49;16.88;;;9.60;;
11328;SDS011;5719;42.714;23.732;2022-11-20T04:06:19;14.63;;;8.18;;
11328;SDS011;5719;42.714;23.732;2022-11-20T04:08:48;17.80;;;9.13;;
11328;SDS011;5719;42.714;23.732;2022-11-20T04:11:16;10.70;;;7.20;;
11328;SDS011;5719;42.714;23.732;2022-11-20T04:13:45;15.48;;;7.22;;
11328;SDS011;5719;42.714;23.732;2022-11-20T04:16:14;22.20;;;12.15;;
11328;SDS011;5719;42.714;23.732;2022-11-20T04:18:42;16.58;;;9.10;;
11328;SDS011;5719;42.714;23.732;2022-11-20T04:21:09;14.40;;;9.02;;
11328;SDS011;5719;42.714;23.732;2022-11-20T04:23:37;16.60;;;7.13;;
11328;SDS011;5719;42.714;23.732;2022-11-20T04:26:06;13.02;;;8.07;;
11328;SDS011;5719;42.714;23.732;2022-11-20T04:28:35;13.73;;;6.95;;
11328;SDS011;5719;42.714;23.732;2022-11-20T04:31:03;14.32;;;5.78;;
11328;SDS011;5719;42.714;23.732;2022-11-20T04:33:30;8.80;;;5.15;;
11328;SDS011;5719;42.714;23.732;2022-11-20T04:35:59;8.70;;;5.22;;
11328;SDS011;5719;42.714;23.732;2022-11-20T04:38:28;11.32;;;5.63;;
11328;SDS011;5719;42.714;23.732;2022-11-20T04:40:58;9.98;;;6.40;;
11328;SDS011;5719;42.714;23.732;2022-11-20T04:43:27;11.10;;;6.13;;
11328;SDS011;5719;42.714;23.732;2022-11-20T04:45:54;8.35;;;5.68;;
11328;SDS011;5719;42.714;23.732;2022-11-20T04:48:21;7.70;;;5.28;;
11328;SDS011;5719;42.714;23.732;2022-11-20T04:50:49;8.65;;;4.22;;
11328;SDS011;5719;42.714;23.732;2022-11-20T04:53:16;6.45;;;4.00;;
11328;SDS011;5719;42.714;23.732;2022-11-20T04:55:43;6.05;;;2.97;;
11328;SDS011;5719;42.714;23.732;2022-11-20T04:58:10;11.90;;;3.88;;
11328;SDS011;5719;42.714;23.732;2022-11-20T05:00:39;6.40;;;2.67;;
11328;SDS011;5719;42.714;23.732;2022-11-20T05:03:06;3.08;;;1.77;;
11328;SDS011;5719;42.714;23.732;2022-11-20T05:05:33;7.72;;;2.25;;
11328;SDS011;5719;42.714;23.732;2022-11-20T05:08:00;4.85;;;1.38;;
11328;SDS011;5719;42.714;23.732;2022-11-20T05:10:27;9.13;;;1.10;;
11328;SDS011;5719;42.714;23.732;2022-11-20T05:12:54;4.10;;;0.68;;
11328;SDS011;5719;42.714;23.732;2022-11-20T05:15:21;2.28;;;0.98;;
11328;SDS011;5719;42.714;23.732;2022-11-20T05:17:49;0.85;;;0.63;;
11328;SDS011;5719;42.714;23.732;2022-11-20T05:20:17;8.55;;;0.90;;
11328;SDS011;5719;42.714;23.732;2022-11-20T05:22:44;3.20;;;0.90;;
11328;SDS011;5719;42.714;23.732;2022-11-20T05:25:11;2.38;;;0.85;;
11328;SDS011;5719;42.714;23.732;2022-11-20T05:27:38;3.55;;;0.88;;
11328;SDS011;5719;42.714;23.732;2022-11-20T05:30:06;2.20;;;0.70;;
11328;SDS011;5719;42.714;23.732;2022-11-20T05:32:33;3.75;;;1.30;;
11328;SDS011;5719;42.714;23.732;2022-11-20T05:35:02;3.47;;;0.85;;
11328;SDS011;5719;42.714;23.732;2022-11-20T05:37:29;4.30;;;1.10;;
11328;SDS011;5719;42.714;23.732;2022-11-20T05:39:56;4.75;;;1.40;;
11328;SDS011;5719;42.714;23.732;2022-11-20T05:42:23;1.92;;;1.00;;
11328;SDS011;5719;42.714;23.732;2022-11-20T05:44:59;3.70;;;0.60;;
11328;SDS011;5719;42.714;23.732;2022-11-20T05:47:27;1.90;;;0.50;;
11328;SDS011;5719;42.714;23.732;2022-11-20T05:49:57;1.95;;;0.70;;
11328;SDS011;5719;42.714;23.732;2022-11-20T05:52:27;4.15;;;0.90;;
11328;SDS011;5719;42.714;23.732;2022-11-20T05:54:55;3.13;;;0.93;;
11328;SDS011;5719;42.714;23.732;2022-11-20T05:57:21;2.22;;;0.70;;
11328;SDS011;5719;42.714;23.732;2022-11-20T05:59:48;2.42;;;0.70;;
11328;SDS011;5719;42.714;23.732;2022-11-20T06:02:15;3.22;;;1.05;;
11328;SDS011;5719;42.714;23.732;2022-11-20T06:04:42;2.78;;;0.80;;
11328;SDS011;5719;42.714;23.732;2022-11-20T06:07:09;5.70;;;1.50;;
11328;SDS011;5719;42.714;23.732;2022-11-20T06:09:38;6.93;;;0.95;;
11328;SDS011;5719;42.714;23.732;2022-11-20T06:12:05;4.38;;;0.90;;
11328;SDS011;5719;42.714;23.732;2022-11-20T06:14:32;14.82;;;4.60;;
11328;SDS011;5719;42.714;23.732;2022-11-20T06:16:59;4.28;;;1.40;;
11328;SDS011;5719;42.714;23.732;2022-11-20T06:19:26;2.70;;;0.80;;
11328;SDS011;5719;42.714;23.732;2022-11-20T06:21:53;4.28;;;0.80;;
11328;SDS011;5719;42.714;23.732;2022-11-20T06:24:20;1.83;;;0.73;;
11328;SDS011;5719;42.714;23.732;2022-11-20T06:26:49;4.28;;;1.02;;
11328;SDS011;5719;42.714;23.732;2022-11-20T06:29:16;3.40;;;0.77;;
11328;SDS011;5719;42.714;23.732;2022-11-20T06:31:43;3.05;;;1.40;;
11328;SDS011;5719;42.714;23.732;2022-11-20T06:34:10;2.33;;;0.88;;
11328;SDS011;5719;42.714;23.732;2022-11-20T06:36:37;3.38;;;1.20;;
11328;SDS011;5719;42.714;23.732;2022-11-20T06:39:03;4.47;;;0.85;;
11328;SDS011;5719;42.714;23.732;2022-11-20T06:41:30;1.40;;;1.05;;
11328;SDS011;5719;42.714;23.732;2022-11-20T06:43:59;2.65;;;1.13;;
11328;SDS011;5719;42.714;23.732;2022-11-20T06:46:25;3.58;;;1.40;;
11328;SDS011;5719;42.714;23.732;2022-11-20T06:48:52;2.78;;;0.90;;
11328;SDS011;5719;42.714;23.732;2022-11-20T06:51:19;2.83;;;1.05;;
11328;SDS011;5719;42.714;23.732;2022-11-20T06:53:46;3.80;;;1.20;;
11328;SDS011;5719;42.714;23.732;2022-11-20T06:56:13;4.07;;;1.38;;
11328;SDS011;5719;42.714;23.732;2022-11-20T06:58:40;4.53;;;1.02;;
11328;SDS011;5719;42.714;23.732;2022-11-20T07:01:10;4.47;;;1.20;;
11328;SDS011;5719;42.714;23.732;2022-11-20T07:03:39;3.60;;;1.30;;
11328;SDS011;5719;42.714;23.732;2022-11-20T07:06:07;2.13;;;1.00;;
11328;SDS011;5719;42.714;23.732;2022-11-20T07:08:34;3.75;;;0.80;;
11328;SDS011;5719;42.714;23.732;2022-11-20T07:11:02;6.22;;;1.63;;
11328;SDS011;5719;42.714;23.732;2022-11-20T07:13:30;2.78;;;1.30;;
11328;SDS011;5719;42.714;23.732;2022-11-20T07:15:59;3.25;;;1.08;;
11328;SDS011;5719;42.714;23.732;2022-11-20T07:18:28;3.22;;;1.00;;
11328;SDS011;5719;42.714;23.732;2022-11-20T07:20:55;1.35;;;0.80;;
11328;SDS011;5719;42.714;23.732;2022-11-20T07:23:23;4.80;;;1.02;;
11328;SDS011;5719;42.714;23.732;2022-11-20T07:25:49;3.92;;;1.20;;
11328;SDS011;5719;42.714;23.732;2022-11-20T07:28:16;3.25;;;1.02;;
11328;SDS011;5719;42.714;23.732;2022-11-20T07:30:48;4.30;;;1.17;;
11328;SDS011;5719;42.714;23.732;2022-11-20T07:33:16;1.48;;;0.90;;
11328;SDS011;5719;42.714;23.732;2022-11-20T07:35:44;3.08;;;1.30;;
11328;SDS011;5719;42.714;23.732;2022-11-20T07:38:11;2.50;;;1.13;;
11328;SDS011;5719;42.714;23.732;2022-11-20T07:40:38;2.92;;;1.10;;
11328;SDS011;5719;42.714;23.732;2022-11-20T07:43:05;3.67;;;1.02;;
11328;SDS011;5719;42.714;23.732;2022-11-20T07:45:32;2.55;;;1.05;;
11328;SDS011;5719;42.714;23.732;2022-11-20T07:47:59;3.28;;;0.90;;
11328;SDS011;5719;42.714;23.732;2022-11-20T07:50:26;2.45;;;1.10;;
11328;SDS011;5719;42.714;23.732;2022-11-20T07:53:01;1.33;;;0.80;;
11328;SDS011;5719;42.714;23.732;2022-11-20T07:55:29;5.78;;;0.90;;
11328;SDS011;5719;42.714;23.732;2022-11-20T07:57:56;2.22;;;1.00;;
11328;SDS011;5719;42.714;23.732;2022-11-20T08:00:23;6.07;;;1.90;;
11328;SDS011;5719;42.714;23.732;2022-11-20T08:02:51;3.05;;;1.65;;
11328;SDS011;5719;42.714;23.732;2022-11-20T08:05:18;6.57;;;2.15;;
11328;SDS011;5719;42.714;23.732;2022-11-20T08:07:45;4.53;;;1.95;;
11328;SDS011;5719;42.714;23.732;2022-11-20T08:10:14;3.42;;;1.20;;
11328;SDS011;5719;42.714;23.732;2022-11-20T08:12:45;2.78;;;1.23;;
11328;SDS011;5719;42.714;23.732;2022-11-20T08:15:30;4.43;;;1.70;;
11328;SDS011;5719;42.714;23.732;2022-11-20T08:18:01;7.07;;;2.13;;
11328;SDS011;5719;42.714;23.732;2022-11-20T08:20:29;6.07;;;2.53;;
11328;SDS011;5719;42.714;23.732;2022-11-20T08:22:57;3.70;;;1.50;;
11328;SDS011;5719;42.714;23.732;2022-11-20T08:25:27;3.10;;;1.40;;
11328;SDS011;5719;42.714;23.732;2022-11-20T08:27:54;3.25;;;1.45;;
11328;SDS011;5719;42.714;23.732;2022-11-20T08:30:25;9.10;;;1.73;;
11328;SDS011;5719;42.714;23.732;2022-11-20T08:32:52;4.65;;;1.77;;
11328;SDS011;5719;42.714;23.732;2022-11-20T08:35:19;5.20;;;1.42;;
11328;SDS011;5719;42.714;23.732;2022-11-20T08:37:47;7.45;;;1.75;;
11328;SDS011;5719;42.714;23.732;2022-11-20T08:40:14;2.47;;;1.55;;
11328;SDS011;5719;42.714;23.732;2022-11-20T08:42:47;6.88;;;1.77;;
11328;SDS011;5719;42.714;23.732;2022-11-20T08:45:14;6.90;;;1.80;;
11328;SDS011;5719;42.714;23.732;2022-11-20T08:47:42;5.30;;;1.65;;
11328;SDS011;5719;42.714;23.732;2022-11-20T08:50:10;3.25;;;1.42;;
11328;SDS011;5719;42.714;23.732;2022-11-20T08:52:38;4.05;;;1.63;;
11328;SDS011;5719;42.714;23.732;2022-11-20T08:55:05;4.30;;;1.50;;
11328;SDS011;5719;42.714;23.732;2022-11-20T08:57:33;3.95;;;1.63;;
11328;SDS011;5719;42.714;23.732;2022-11-20T09:00:03;5.07;;;1.50;;
11328;SDS011;5719;42.714;23.732;2022-11-20T09:02:31;3.28;;;1.67;;
11328;SDS011;5719;42.714;23.732;2022-11-20T09:04:59;5.30;;;1.80;;
11328;SDS011;5719;42.714;23.732;2022-11-20T09:07:27;3.55;;;1.20;;
11328;SDS011;5719;42.714;23.732;2022-11-20T09:09:55;4.00;;;1.50;;
11328;SDS011;5719;42.714;23.732;2022-11-20T09:12:21;2.35;;;1.45;;
11328;SDS011;5719;42.714;23.732;2022-11-20T09:14:48;3.38;;;1.40;;
11328;SDS011;5719;42.714;23.732;2022-11-20T09:17:17;4.40;;;1.65;;
11328;SDS011;5719;42.714;23.732;2022-11-20T09:19:45;5.72;;;1.63;;
11328;SDS011;5719;42.714;23.732;2022-11-20T09:22:12;3.60;;;1.50;;
11328;SDS011;5719;42.714;23.732;2022-11-20T09:24:39;1.77;;;1.63;;
11328;SDS011;5719;42.714;23.732;2022-11-20T09:27:06;6.25;;;1.42;;
11328;SDS011;5719;42.714;23.732;2022-11-20T09:29:33;2.95;;;1.55;;
11328;SDS011;5719;42.714;23.732;2022-11-20T09:32:00;7.28;;;1.63;;
11328;SDS011;5719;42.714;23.732;2022-11-20T09:34:28;6.68;;;2.00;;
11328;SDS011;5719;42.714;23.732;2022-11-20T09:36:55;10.48;;;2.10;;
11328;SDS011;5719;42.714;23.732;2022-11-20T09:39:22;4.45;;;1.92;;
11328;SDS011;5719;42.714;23.732;2022-11-20T09:42:02;6.20;;;2.08;;
11328;SDS011;5719;42.714;23.732;2022-11-20T09:44:48;5.22;;;2.20;;
11328;SDS011;5719;42.714;23.732;2022-11-20T09:47:26;3.38;;;1.75;;
11328;SDS011;5719;42.714;23.732;2022-11-20T09:50:11;4.05;;;2.08;;
11328;SDS011;5719;42.714;23.732;2022-11-20T09:52:51;13.05;;;5.07;;
11328;SDS011;5719;42.714;23.732;2022-11-20T09:55:31;10.27;;;3.97;;
11328;SDS011;5719;42.714;23.732;2022-11-20T09:58:00;8.57;;;3.35;;
11328;SDS011;5719;42.714;23.732;2022-11-20T10:00:27;5.88;;;2.97;;
11328;SDS011;5719;42.714;23.732;2022-11-20T10:02:55;5.28;;;1.92;;
11328;SDS011;5719;42.714;23.732;2022-11-20T10:05:30;9.10;;;3.47;;
11328;SDS011;5719;42.714;23.732;2022-11-20T10:10:35;5.47;;;2.65;;
11328;SDS011;5719;42.714;23.732;2022-11-20T10:13:12;6.53;;;2.40;;
11328;SDS011;5719;42.714;23.732;2022-11-20T10:15:53;7.63;;;1.67;;
11328;SDS011;5719;42.714;23.732;2022-11-20T10:18:34;5.03;;;1.70;;
11328;SDS011;5719;42.714;23.732;2022-11-20T10:21:13;5.85;;;2.55;;
11328;SDS011;5719;42.714;23.732;2022-11-20T10:24:23;6.50;;;2.67;;
11328;SDS011;5719;42.714;23.732;2022-11-20T10:27:11;8.95;;;2.20;;
11328;SDS011;5719;42.714;23.732;2022-11-20T10:29:57;6.88;;;2.30;;
11328;SDS011;5719;42.714;23.732;2022-11-20T10:32:30;7.18;;;3.30;;
11328;SDS011;5719;42.714;23.732;2022-11-20T10:37:32;2.80;;;1.45;;
11328;SDS011;5719;42.714;23.732;2022-11-20T10:40:06;5.82;;;1.52;;
11328;SDS011;5719;42.714;23.732;2022-11-20T10:42:47;6.50;;;1.50;;
11328;SDS011;5719;42.714;23.732;2022-11-20T10:45:21;5.97;;;1.55;;
11328;SDS011;5719;42.714;23.732;2022-11-20T10:48:07;4.57;;;1.52;;
11328;SDS011;5719;42.714;23.732;2022-11-20T10:50:40;4.88;;;1.40;;
11328;SDS011;5719;42.714;23.732;2022-11-20T10:53:18;6.20;;;1.45;;
11328;SDS011;5719;42.714;23.732;2022-11-20T10:55:55;5.82;;;1.27;;
11328;SDS011;5719;42.714;23.732;2022-11-20T10:58:29;6.10;;;1.40;;
11328;SDS011;5719;42.714;23.732;2022-11-20T11:01:03;2.88;;;1.40;;
11328;SDS011;5719;42.714;23.732;2022-11-20T11:03:31;7.93;;;1.65;;
11328;SDS011;5719;42.714;23.732;2022-11-20T11:06:00;6.18;;;2.45;;
11328;SDS011;5719;42.714;23.732;2022-11-20T11:08:35;6.55;;;2.38;;
11328;SDS011;5719;42.714;23.732;2022-11-20T11:11:07;3.15;;;2.22;;
11328;SDS011;5719;42.714;23.732;2022-11-20T11:13:44;7.32;;;2.50;;
11328;SDS011;5719;42.714;23.732;2022-11-20T11:16:16;4.70;;;2.70;;
11328;SDS011;5719;42.714;23.732;2022-11-20T11:18:47;7.65;;;2.22;;
11328;SDS011;5719;42.714;23.732;2022-11-20T11:21:14;4.85;;;1.90;;
11328;SDS011;5719;42.714;23.732;2022-11-20T11:24:00;3.13;;;1.90;;
11328;SDS011;5719;42.714;23.732;2022-11-20T11:26:29;7.05;;;1.65;;
11328;SDS011;5719;42.714;23.732;2022-11-20T11:28:56;5.43;;;1.92;;
11328;SDS011;5719;42.714;23.732;2022-11-20T11:31:25;3.28;;;1.75;;
11328;SDS011;5719;42.714;23.732;2022-11-20T11:34:03;6.32;;;2.65;;
11328;SDS011;5719;42.714;23.732;2022-11-20T11:36:32;5.72;;;3.00;;
11328;SDS011;5719;42.714;23.732;2022-11-20T11:39:02;7.50;;;3.38;;
11328;SDS011;5719;42.714;23.732;2022-11-20T11:41:31;6.13;;;3.20;;
11328;SDS011;5719;42.714;23.732;2022-11-20T11:44:02;7.38;;;2.67;;
11328;SDS011;5719;42.714;23.732;2022-11-20T11:47:10;6.82;;;3.28;;
11328;SDS011;5719;42.714;23.732;2022-11-20T11:49:46;9.50;;;3.55;;
11328;SDS011;5719;42.714;23.732;2022-11-20T11:52:14;12.00;;;3.47;;
11328;SDS011;5719;42.714;23.732;2022-11-20T11:54:45;6.63;;;2.50;;
11328;SDS011;5719;42.714;23.732;2022-11-20T11:57:17;8.32;;;3.83;;
11328;SDS011;5719;42.714;23.732;2022-11-20T11:59:54;15.05;;;6.03;;
11328;SDS011;5719;42.714;23.732;2022-11-20T12:02:32;4.30;;;2.60;;
11328;SDS011;5719;42.714;23.732;2022-11-20T12:05:08;8.80;;;3.08;;
11328;SDS011;5719;42.714;23.732;2022-11-20T12:07:45;5.88;;;3.25;;
11328;SDS011;5719;42.714;23.732;2022-11-20T12:10:19;6.82;;;2.28;;
11328;SDS011;5719;42.714;23.732;2022-11-20T12:12:50;9.63;;;2.75;;
11328;SDS011;5719;42.714;23.732;2022-11-20T12:15:23;8.10;;;2.13;;
11328;SDS011;5719;42.714;23.732;2022-11-20T12:17:55;8.68;;;3.10;;
11328;SDS011;5719;42.714;23.732;2022-11-20T12:20:25;6.70;;;3.17;;
11328;SDS011;5719;42.714;23.732;2022-11-20T12:22:56;10.95;;;3.33;;
11328;SDS011;5719;42.714;23.732;2022-11-20T12:25:34;9.30;;;3.53;;
11328;SDS011;5719;42.714;23.732;2022-11-20T12:31:02;6.55;;;2.78;;
11328;SDS011;5719;42.714;23.732;2022-11-20T12:36:37;9.02;;;3.63;;
11328;SDS011;5719;42.714;23.732;2022-11-20T12:42:18;10.38;;;4.03;;
11328;SDS011;5719;42.714;23.732;2022-11-20T12:51:37;6.75;;;3.42;;
11328;SDS011;5719;42.714;23.732;2022-11-20T12:54:28;8.32;;;3.03;;
11328;SDS011;5719;42.714;23.732;2022-11-20T12:57:19;6.10;;;2.60;;
11328;SDS011;5719;42.714;23.732;2022-11-20T12:59:58;4.28;;;1.70;;
11328;SDS011;5719;42.714;23.732;2022-11-20T13:02:33;7.43;;;1.80;;
11328;SDS011;5719;42.714;23.732;2022-11-20T13:05:15;4.47;;;1.77;;
11328;SDS011;5719;42.714;23.732;2022-11-20T13:07:47;5.72;;;2.42;;
11328;SDS011;5719;42.714;23.732;2022-11-20T13:10:20;5.40;;;2.05;;
11328;SDS011;5719;42.714;23.732;2022-11-20T13:12:55;7.30;;;1.90;;
11328;SDS011;5719;42.714;23.732;2022-11-20T13:15:31;6.43;;;2.08;;
11328;SDS011;5719;42.714;23.732;2022-11-20T13:20:41;6.05;;;1.70;;
11328;SDS011;5719;42.714;23.732;2022-11-20T13:23:09;5.50;;;1.40;;
11328;SDS011;5719;42.714;23.732;2022-11-20T13:25:37;4.43;;;1.30;;
11328;SDS011;5719;42.714;23.732;2022-11-20T13:30:55;6.10;;;0.88;;
11328;SDS011;5719;42.714;23.732;2022-11-20T13:33:24;6.40;;;0.90;;
11328;SDS011;5719;42.714;23.732;2022-11-20T13:35:55;2.40;;;0.77;;
11328;SDS011;5719;42.714;23.732;2022-11-20T13:38:24;5.47;;;0.77;;
11328;SDS011;5719;42.714;23.732;2022-11-20T13:40:51;3.65;;;1.10;;
11328;SDS011;5719;42.714;23.732;2022-11-20T13:43:22;1.98;;;1.15;;
11328;SDS011;5719;42.714;23.732;2022-11-20T13:46:00;2.38;;;1.10;;
11328;SDS011;5719;42.714;23.732;2022-11-20T13:48:30;2.50;;;1.30;;
11328;SDS011;5719;42.714;23.732;2022-11-20T13:51:02;3.88;;;1.25;;
11328;SDS011;5719;42.714;23.732;2022-11-20T13:53:44;2.15;;;1.13;;
11328;SDS011;5719;42.714;23.732;2022-11-20T13:56:23;4.50;;;0.88;;
11328;SDS011;5719;42.714;23.732;2022-11-20T13:59:09;2.67;;;0.95;;
11328;SDS011;5719;42.714;23.732;2022-11-20T14:01:45;2.67;;;1.20;;
11328;SDS011;5719;42.714;23.732;2022-11-20T14:04:14;2.47;;;1.23;;
11328;SDS011;5719;42.714;23.732;2022-11-20T14:06:45;8.25;;;4.03;;
11328;SDS011;5719;42.714;23.732;2022-11-20T14:09:24;16.85;;;8.65;;
11328;SDS011;5719;42.714;23.732;2022-11-20T14:11:52;7.63;;;3.78;;
11328;SDS011;5719;42.714;23.732;2022-11-20T14:14:21;5.90;;;3.65;;
11328;SDS011;5719;42.714;23.732;2022-11-20T14:16:49;8.82;;;4.38;;
11328;SDS011;5719;42.714;23.732;2022-11-20T14:19:27;9.35;;;3.78;;
11328;SDS011;5719;42.714;23.732;2022-11-20T14:22:17;2.95;;;2.13;;
11328;SDS011;5719;42.714;23.732;2022-11-20T14:24:46;7.03;;;4.15;;
11328;SDS011;5719;42.714;23.732;2022-11-20T14:27:14;8.13;;;4.80;;
11328;SDS011;5719;42.714;23.732;2022-11-20T14:29:44;9.48;;;5.10;;
11328;SDS011;5719;42.714;23.732;2022-11-20T14:32:14;5.75;;;3.38;;
11328;SDS011;5719;42.714;23.732;2022-11-20T14:34:43;2.92;;;2.53;;
11328;SDS011;5719;42.714;23.732;2022-11-20T14:37:12;5.40;;;2.88;;
11328;SDS011;5719;42.714;23.732;2022-11-20T14:39:48;3.55;;;2.50;;
11328;SDS011;5719;42.714;23.732;2022-11-20T14:42:17;3.03;;;1.95;;
11328;SDS011;5719;42.714;23.732;2022-11-20T14:44:47;31.50;;;13.85;;
11328;SDS011;5719;42.714;23.732;2022-11-20T14:47:17;27.85;;;10.95;;
11328;SDS011;5719;42.714;23.732;2022-11-20T14:49:47;20.70;;;9.20;;
11328;SDS011;5719;42.714;23.732;2022-11-20T14:52:16;15.32;;;7.53;;
11328;SDS011;5719;42.714;23.732;2022-11-20T14:54:45;20.38;;;9.65;;
11328;SDS011;5719;42.714;23.732;2022-11-20T14:57:20;21.50;;;9.52;;
11328;SDS011;5719;42.714;23.732;2022-11-20T14:59:51;17.10;;;8.77;;
11328;SDS011;5719;42.714;23.732;2022-11-20T15:02:29;9.20;;;3.47;;
11328;SDS011;5719;42.714;23.732;2022-11-20T15:04:57;3.63;;;2.00;;
11328;SDS011;5719;42.714;23.732;2022-11-20T15:07:27;3.50;;;2.30;;
11328;SDS011;5719;42.714;23.732;2022-11-20T15:09:59;6.05;;;2.20;;
11328;SDS011;5719;42.714;23.732;2022-11-20T15:12:27;6.38;;;3.55;;
11328;SDS011;5719;42.714;23.732;2022-11-20T15:14:56;11.75;;;7.85;;
11328;SDS011;5719;42.714;23.732;2022-11-20T15:17:24;11.35;;;6.03;;
11328;SDS011;5719;42.714;23.732;2022-11-20T15:19:51;10.65;;;4.85;;
11328;SDS011;5719;42.714;23.732;2022-11-20T15:22:18;8.25;;;4.32;;
11328;SDS011;5719;42.714;23.732;2022-11-20T15:24:46;6.32;;;4.43;;
11328;SDS011;5719;42.714;23.732;2022-11-20T15:27:12;6.05;;;4.05;;